| Pilot: | GLD1043 Marcio M. | Aircraft: | $$:Helicopter | Distance: | 49NM |
| From: | SSCN | To: | SSCN | Duration: | 1.09 |
| Validation: | Valid | Tipo: | Charter | Tail Number: | PT-GLD |
| ZFW: | 3234 | Block Fuel/Init FOB | 350flight_details.php/231 | Flight Fuel | 350 |
| Passengers: | 2 | Cargo: | 30 | Alternate: | SBCO |
| Departure Time: | 1034 | Cruise Speed: | 0140 | Flight Level: | A055 |
| Flight Type: | VFR | Aircraft Type: | AS50 | Weight Unit: | Kg |
| Date: | 29/03/2026 | Comments: | GOLD ACARS | Network: | VATSIM |
| Crash: | No | Validator Comments: | Rating | 87.2579 |
| ROUTE | LOCAL |
| REMARKS | OPR/GOLD VIRTUAL AIRLINES PER/H RMK/PIC GLD1043/SAR/500FT AGL/SEARCH 17NM SOUTHEAST SSCN |
| Crash | OK | Beacon Lights off with engine on | Fault | Speed above 250KIAS below 10.000ft | OK |
| Landing Lights OFF below 10.000ft | Fault | Landing Lights ON above 10.000ft | OK | Stall | OK |
| Overspeed | OK | Pause | OK | Refuel | OK |
| Slew | OK | Taxi Lights OFF during taxi | OK | Land Lights OFF during take off | OK |
| Landing Lights OFF during landing | OK | Landed in not planned airfield | OK | Taxi speed above 25 kt | OK |
| Incorrect QNH during take off | OK | Incorrect QNH during landing | Fault |
| Wind: | 198º/9 kt | Heading: | 154 |
| VS: | -18 ft/min | IAS: | 8 kt |
| Gforce: | 1.0208 G | Bank: | -0.78 |
| Pitch | 0.08 | Flaps | 0 |
| Nav Lights | OFF | Landing Lights | ON |
| Beacon Lights | OFF | Strobe Lights | OFF |
| DATE | EVENT | IAS | ALTITUDE |
|---|---|---|---|
| 2026-03-29 10:34:30 | GOLD ACARS VERSION 3.3.6.9 | 0 | 0 |
| 2026-03-29 10:34:30 | TAXI LIGHTS ON | 0 | 0 |
| 2026-03-29 10:34:30 | BOARDING | 5 | 2550 |
| 2026-03-29 10:34:30 | LITTLENAVMAP ON | 5 | 2550 |
| 2026-03-29 10:38:23 | STARTING ENGINE 1 | 4 | 2550 |
| 2026-03-29 10:38:24 | BEACON LIGHT OFF & ENGINE ON | 4 | 2550 |
| 2026-03-29 10:44:45 | CLIMBING | 2 | 2605 |
| 2026-03-29 10:44:45 | LIGHTS OFF BELOW 10000 ft | 2 | 2605 |
| 2026-03-29 10:44:47 | CRUISE | 1 | 2625 |
| 2026-03-29 10:44:50 | LANDING | 1 | 2620 |
| 2026-03-29 10:45:14 | LND LIGHTS ON | 18 | 2647 |
| 2026-03-29 10:45:38 | CLIMBING | 54 | 2712 |
| 2026-03-29 10:45:53 | CRUISE | 63 | 2815 |
| 2026-03-29 10:46:13 | CLIMBING | 81 | 2897 |
| 2026-03-29 10:47:32 | CRUISE | 87 | 3597 |
| 2026-03-29 10:50:24 | CLIMBING | 99 | 3546 |
| 2026-03-29 10:50:30 | CRUISE | 78 | 3672 |
| 2026-03-29 10:57:01 | LANDING | 124 | 3344 |
| 2026-03-29 10:59:40 | CLIMBING | 55 | 1439 |
| 2026-03-29 11:00:53 | CRUISE | 24 | 2652 |
| 2026-03-29 11:01:04 | LANDING | 2 | 2645 |
| 2026-03-29 11:03:56 | CLIMBING | 3 | 2533 |
| 2026-03-29 11:04:50 | CRUISE | 58 | 3217 |
| 2026-03-29 11:05:25 | CLIMBING | 97 | 2974 |
| 2026-03-29 11:05:51 | CRUISE | 78 | 3320 |
| 2026-03-29 11:06:22 | LANDING | 49 | 3135 |
| 2026-03-29 11:08:27 | LANDED AIRPORT [DAER] | 4 | 2708 |
| 2026-03-29 11:08:27 | LANDED - VS: -46 ft/min | 4 | 2707 |
| 2026-03-29 11:08:28 | LANDING WITH INCORRECT QNH - SET:1013 LOCAL: 1018 | 4 | 2707 |
| 2026-03-29 11:14:18 | CLIMBING | 12 | 2749 |
| 2026-03-29 11:14:32 | CRUISE | 19 | 2908 |
| 2026-03-29 11:14:34 | LANDING | 22 | 2904 |
| 2026-03-29 11:14:41 | CLIMBING | 34 | 2897 |
| 2026-03-29 11:14:48 | CRUISE | 51 | 2964 |
| 2026-03-29 11:15:01 | LANDING | 79 | 2970 |
| 2026-03-29 11:15:08 | CLIMBING | 89 | 2902 |
| 2026-03-29 11:15:25 | CRUISE | 98 | 3134 |
| 2026-03-29 11:15:28 | CLIMBING | 99 | 3149 |
| 2026-03-29 11:16:01 | CRUISE | 92 | 3454 |
| 2026-03-29 11:16:02 | LANDING | 92 | 3451 |
| 2026-03-29 11:19:00 | LANDED AIRPORT [DAER] | 0 | 2690 |
| 2026-03-29 11:19:00 | LANDED - VS: -80 ft/min | 0 | 2689 |
| 2026-03-29 11:23:25 | CLIMBING | 19 | 2749 |
| 2026-03-29 11:24:03 | CRUISE | 79 | 3227 |
| 2026-03-29 11:24:16 | CLIMBING | 96 | 3275 |
| 2026-03-29 11:24:51 | CRUISE | 109 | 3556 |
| 2026-03-29 11:25:00 | LANDING | 111 | 3573 |
| 2026-03-29 11:25:58 | CLIMBING | 98 | 3595 |
| 2026-03-29 11:26:20 | CRUISE | 89 | 3769 |
| 2026-03-29 11:31:45 | LANDING | 86 | 3623 |
| 2026-03-29 11:32:28 | CLIMBING | 79 | 3498 |
| 2026-03-29 11:32:44 | CRUISE | 59 | 3663 |
| 2026-03-29 11:32:48 | LANDING | 57 | 3660 |
| 2026-03-29 11:36:48 | LANDED AIRPORT [SSCN] | 8 | 2778 |
| 2026-03-29 11:36:48 | TAXI TO THE GATE | 8 | 2778 |
| 2026-03-29 11:37:06 | LND LIGHTS OFF | 4 | 2777 |
| 2026-03-29 11:37:20 | STOPPING ENGINE 1 | 3 | 2777 |
| 2026-03-29 11:39:45 | LITTLENAVMAP OFF | 5 | 2775 |
| 2026-03-29 11:39:51 | TAXI LIGHTS OFF | 5 | 2775 |
| 2026-03-29 11:39:52 | FLIGHT FINISHED | 5 | 2775 |
| DATE | IAS | GS | ALTITUDE | FUEL USED | OAT | Flight Phase |
|---|---|---|---|---|---|---|
| 2026-03-29 10:36:30 | 5 | 0 | 2550 | 0 | 25 | BOARDING |
| 2026-03-29 10:37:30 | 6 | 0 | 2550 | 0 | 25 | BOARDING |
| 2026-03-29 10:38:31 | 5 | 0 | 2550 | 0 | 25 | BOARDING |
| 2026-03-29 10:39:31 | 5 | 0 | 2550 | 1 | 25 | BOARDING |
| 2026-03-29 10:40:31 | 5 | 0 | 2550 | 2 | 25 | BOARDING |
| 2026-03-29 10:41:31 | 4 | 0 | 2550 | 3 | 25 | BOARDING |
| 2026-03-29 10:42:31 | 6 | 0 | 2550 | 4 | 25 | BOARDING |
| 2026-03-29 10:43:31 | 6 | 0 | 2550 | 5 | 25 | BOARDING |
| 2026-03-29 10:44:32 | 7 | 13 | 2599 | 7 | 25 | BOARDING |
| 2026-03-29 10:45:32 | 46 | 50 | 2681 | 10 | 25 | BOARDING |
| 2026-03-29 10:46:32 | 76 | 80 | 3134 | 12 | 23 | LANDING |
| 2026-03-29 10:47:32 | 88 | 100 | 3597 | 15 | 22 | CLIMBING |
| 2026-03-29 10:48:32 | 100 | 113 | 3546 | 17 | 22 | CRUISE |
| 2026-03-29 10:49:32 | 102 | 116 | 3537 | 18 | 22 | CRUISE |
| 2026-03-29 10:50:32 | 76 | 89 | 3676 | 19 | 21 | CRUISE |
| 2026-03-29 10:51:33 | 95 | 108 | 3589 | 21 | 22 | CRUISE |
| 2026-03-29 10:52:33 | 103 | 121 | 3613 | 23 | 22 | CRUISE |
| 2026-03-29 10:53:33 | 108 | 124 | 3594 | 26 | 22 | CRUISE |
| 2026-03-29 10:54:33 | 115 | 129 | 3592 | 29 | 22 | CRUISE |
| 2026-03-29 10:55:33 | 117 | 125 | 3597 | 32 | 22 | CRUISE |
| 2026-03-29 10:56:33 | 116 | 127 | 3595 | 34 | 22 | CRUISE |
| 2026-03-29 10:57:34 | 132 | 140 | 2239 | 37 | 24 | CRUISE |
| 2026-03-29 10:58:34 | 49 | 58 | 1745 | 38 | 25 | LANDING |
| 2026-03-29 10:59:34 | 60 | 65 | 1412 | 40 | 30 | LANDING |
| 2026-03-29 11:00:34 | 58 | 57 | 2427 | 43 | 26 | LANDING |
| 2026-03-29 11:01:34 | 21 | 17 | 2582 | 45 | 25 | CLIMBING |
| 2026-03-29 11:02:35 | 24 | 30 | 2765 | 48 | 24 | LANDING |
| 2026-03-29 11:03:35 | 7 | 5 | 2466 | 50 | 25 | LANDING |
| 2026-03-29 11:04:35 | 43 | 56 | 3052 | 53 | 23 | LANDING |
| 2026-03-29 11:05:35 | 86 | 91 | 3134 | 55 | 23 | CLIMBING |
| 2026-03-29 11:06:35 | 40 | 28 | 2986 | 57 | 24 | CLIMBING |
| 2026-03-29 11:07:35 | 11 | 4 | 2719 | 60 | 24 | LANDING |
| 2026-03-29 11:08:36 | 0 | 0 | 2706 | 62 | 24 | LANDING |
| 2026-03-29 11:09:36 | 0 | 0 | 2706 | 63 | 24 | LANDED - VS: -46 ft/min |
| 2026-03-29 11:10:36 | 0 | 0 | 2706 | 64 | 24 | LANDED - VS: -46 ft/min |
| 2026-03-29 11:11:36 | 0 | 0 | 2706 | 65 | 24 | LANDED - VS: -46 ft/min |
| 2026-03-29 11:12:36 | 0 | 0 | 2706 | 66 | 24 | LANDED - VS: -46 ft/min |
| 2026-03-29 11:13:36 | 0 | 0 | 2706 | 67 | 24 | LANDED - VS: -46 ft/min |
| 2026-03-29 11:14:37 | 26 | 43 | 2888 | 70 | 24 | LANDED - VS: -46 ft/min |
| 2026-03-29 11:15:37 | 92 | 106 | 3240 | 73 | 23 | LANDING |
| 2026-03-29 11:16:37 | 51 | 50 | 3349 | 75 | 23 | CLIMBING |
| 2026-03-29 11:17:37 | 37 | 38 | 2978 | 76 | 24 | LANDING |
| 2026-03-29 11:18:37 | 0 | 4 | 2698 | 79 | 24 | LANDING |
| 2026-03-29 11:19:37 | 0 | 0 | 2688 | 80 | 24 | LANDING |
| 2026-03-29 11:20:37 | 0 | 0 | 2688 | 82 | 24 | LANDED - VS: -80 ft/min |
| 2026-03-29 11:21:38 | 0 | 0 | 2688 | 83 | 24 | LANDED - VS: -80 ft/min |
| 2026-03-29 11:22:38 | 0 | 0 | 2688 | 85 | 24 | LANDED - VS: -80 ft/min |
| 2026-03-29 11:23:38 | 40 | 52 | 2908 | 87 | 24 | LANDED - VS: -80 ft/min |
| 2026-03-29 11:24:38 | 105 | 113 | 3456 | 90 | 22 | CLIMBING |
| 2026-03-29 11:25:38 | 104 | 106 | 3567 | 92 | 22 | CLIMBING |
| 2026-03-29 11:26:38 | 88 | 92 | 3746 | 95 | 21 | LANDING |
| 2026-03-29 11:27:38 | 79 | 85 | 3751 | 97 | 21 | CRUISE |
| 2026-03-29 11:28:39 | 99 | 102 | 3745 | 99 | 21 | CRUISE |
| 2026-03-29 11:29:39 | 98 | 103 | 3912 | 102 | 21 | CRUISE |
| 2026-03-29 11:30:39 | 99 | 102 | 3657 | 104 | 22 | CRUISE |
| 2026-03-29 11:31:39 | 85 | 86 | 3668 | 107 | 22 | CRUISE |
| 2026-03-29 11:32:39 | 64 | 69 | 3609 | 109 | 23 | CRUISE |
| 2026-03-29 11:33:39 | 46 | 52 | 3323 | 111 | 24 | CLIMBING |
| 2026-03-29 11:34:39 | 36 | 32 | 2958 | 113 | 25 | LANDING |
| 2026-03-29 11:35:40 | 14 | 10 | 2788 | 115 | 25 | LANDING |
| 2026-03-29 11:36:40 | 12 | 3 | 2781 | 117 | 25 | LANDING |
| 2026-03-29 11:37:40 | 4 | 0 | 2775 | 118 | 25 | LANDING |
| 2026-03-29 11:38:40 | 6 | 0 | 2775 | 118 | 25 | TAXI TO THE GATE |
| 2026-03-29 11:39:40 | 5 | 0 | 2775 | 118 | 25 | TAXI TO THE GATE |